sensor_id;sensor_type;location;lat;lon;timestamp;temperature;humidity
16128;DHT22;8168;49.036;7.690;2023-12-07T00:00:39;2.40;99.90
16128;DHT22;8168;49.036;7.690;2023-12-07T00:03:10;2.40;99.90
16128;DHT22;8168;49.036;7.690;2023-12-07T00:05:41;2.40;99.90
16128;DHT22;8168;49.036;7.690;2023-12-07T00:08:11;2.50;99.90
16128;DHT22;8168;49.036;7.690;2023-12-07T00:10:42;2.50;99.90
16128;DHT22;8168;49.036;7.690;2023-12-07T00:13:13;2.50;99.90
16128;DHT22;8168;49.036;7.690;2023-12-07T00:15:43;2.50;99.90
16128;DHT22;8168;49.036;7.690;2023-12-07T00:18:14;2.50;99.90
16128;DHT22;8168;49.036;7.690;2023-12-07T00:20:44;2.50;99.90
16128;DHT22;8168;49.036;7.690;2023-12-07T00:23:15;2.50;99.90
16128;DHT22;8168;49.036;7.690;2023-12-07T00:25:46;2.40;99.90
16128;DHT22;8168;49.036;7.690;2023-12-07T00:28:16;2.40;99.90
16128;DHT22;8168;49.036;7.690;2023-12-07T00:30:47;2.40;99.90
16128;DHT22;8168;49.036;7.690;2023-12-07T00:33:17;2.40;99.90
16128;DHT22;8168;49.036;7.690;2023-12-07T00:35:49;2.30;99.90
16128;DHT22;8168;49.036;7.690;2023-12-07T00:38:20;2.40;99.90
16128;DHT22;8168;49.036;7.690;2023-12-07T00:40:51;2.40;99.90
16128;DHT22;8168;49.036;7.690;2023-12-07T00:43:22;2.40;99.90
16128;DHT22;8168;49.036;7.690;2023-12-07T00:45:52;2.40;99.90
16128;DHT22;8168;49.036;7.690;2023-12-07T00:48:23;2.40;99.90
16128;DHT22;8168;49.036;7.690;2023-12-07T00:50:53;2.40;99.90
16128;DHT22;8168;49.036;7.690;2023-12-07T00:53:24;2.40;99.90
16128;DHT22;8168;49.036;7.690;2023-12-07T00:55:55;2.40;99.90
16128;DHT22;8168;49.036;7.690;2023-12-07T00:58:25;2.40;99.90
16128;DHT22;8168;49.036;7.690;2023-12-07T01:00:56;2.30;99.90
16128;DHT22;8168;49.036;7.690;2023-12-07T01:03:26;2.30;99.90
16128;DHT22;8168;49.036;7.690;2023-12-07T01:05:57;2.50;99.90
16128;DHT22;8168;49.036;7.690;2023-12-07T01:08:28;2.30;99.90
16128;DHT22;8168;49.036;7.690;2023-12-07T01:10:58;2.40;99.90
16128;DHT22;8168;49.036;7.690;2023-12-07T01:13:29;2.40;99.90
16128;DHT22;8168;49.036;7.690;2023-12-07T01:16:00;2.40;99.90
16128;DHT22;8168;49.036;7.690;2023-12-07T01:18:31;2.40;99.90
16128;DHT22;8168;49.036;7.690;2023-12-07T01:21:01;2.40;99.90
16128;DHT22;8168;49.036;7.690;2023-12-07T01:23:32;2.50;99.90
16128;DHT22;8168;49.036;7.690;2023-12-07T01:26:03;2.50;99.90
16128;DHT22;8168;49.036;7.690;2023-12-07T01:28:34;2.60;99.90
16128;DHT22;8168;49.036;7.690;2023-12-07T01:31:04;2.60;99.90
16128;DHT22;8168;49.036;7.690;2023-12-07T01:33:35;2.60;99.90
16128;DHT22;8168;49.036;7.690;2023-12-07T01:36:05;2.60;99.90
16128;DHT22;8168;49.036;7.690;2023-12-07T01:38:36;2.60;99.90
16128;DHT22;8168;49.036;7.690;2023-12-07T01:41:07;2.70;99.90
16128;DHT22;8168;49.036;7.690;2023-12-07T01:43:38;2.70;99.90
16128;DHT22;8168;49.036;7.690;2023-12-07T01:46:15;2.70;99.90
16128;DHT22;8168;49.036;7.690;2023-12-07T01:48:47;2.70;99.90
16128;DHT22;8168;49.036;7.690;2023-12-07T01:51:20;2.70;99.90
16128;DHT22;8168;49.036;7.690;2023-12-07T01:53:51;2.90;99.90
16128;DHT22;8168;49.036;7.690;2023-12-07T01:56:23;2.80;99.90
16128;DHT22;8168;49.036;7.690;2023-12-07T01:58:55;2.70;99.90
16128;DHT22;8168;49.036;7.690;2023-12-07T02:01:25;2.80;99.90
16128;DHT22;8168;49.036;7.690;2023-12-07T02:03:56;2.80;99.90
16128;DHT22;8168;49.036;7.690;2023-12-07T02:06:26;2.90;99.90
16128;DHT22;8168;49.036;7.690;2023-12-07T02:08:57;3.30;99.90
16128;DHT22;8168;49.036;7.690;2023-12-07T02:11:28;2.90;99.90
16128;DHT22;8168;49.036;7.690;2023-12-07T02:13:58;2.90;99.90
16128;DHT22;8168;49.036;7.690;2023-12-07T02:16:36;2.90;99.90
16128;DHT22;8168;49.036;7.690;2023-12-07T02:21:55;3.00;99.90
16128;DHT22;8168;49.036;7.690;2023-12-07T02:24:27;3.00;99.90
16128;DHT22;8168;49.036;7.690;2023-12-07T02:27:02;2.90;99.90
16128;DHT22;8168;49.036;7.690;2023-12-07T02:29:32;3.00;99.90
16128;DHT22;8168;49.036;7.690;2023-12-07T02:32:03;3.00;99.90
16128;DHT22;8168;49.036;7.690;2023-12-07T02:34:34;3.00;99.90
16128;DHT22;8168;49.036;7.690;2023-12-07T02:37:05;3.00;99.90
16128;DHT22;8168;49.036;7.690;2023-12-07T02:39:36;3.00;99.90
16128;DHT22;8168;49.036;7.690;2023-12-07T02:42:07;3.00;99.90
16128;DHT22;8168;49.036;7.690;2023-12-07T02:44:39;3.00;99.90
16128;DHT22;8168;49.036;7.690;2023-12-07T02:47:09;3.10;99.90
16128;DHT22;8168;49.036;7.690;2023-12-07T02:49:40;3.00;99.90
16128;DHT22;8168;49.036;7.690;2023-12-07T02:52:11;3.00;99.90
16128;DHT22;8168;49.036;7.690;2023-12-07T02:54:41;3.00;99.90
16128;DHT22;8168;49.036;7.690;2023-12-07T02:57:12;3.00;99.90
16128;DHT22;8168;49.036;7.690;2023-12-07T02:59:45;3.00;99.90
16128;DHT22;8168;49.036;7.690;2023-12-07T03:02:15;2.90;99.90
16128;DHT22;8168;49.036;7.690;2023-12-07T03:04:46;2.90;99.90
16128;DHT22;8168;49.036;7.690;2023-12-07T03:07:16;3.00;99.90
16128;DHT22;8168;49.036;7.690;2023-12-07T03:09:47;2.90;99.90
16128;DHT22;8168;49.036;7.690;2023-12-07T03:12:18;3.00;99.90
16128;DHT22;8168;49.036;7.690;2023-12-07T03:14:49;2.90;99.90
16128;DHT22;8168;49.036;7.690;2023-12-07T03:17:19;2.80;99.90
16128;DHT22;8168;49.036;7.690;2023-12-07T03:19:50;2.70;99.90
16128;DHT22;8168;49.036;7.690;2023-12-07T03:22:21;2.60;99.90
16128;DHT22;8168;49.036;7.690;2023-12-07T03:24:52;2.60;99.90
16128;DHT22;8168;49.036;7.690;2023-12-07T03:27:23;2.60;99.90
16128;DHT22;8168;49.036;7.690;2023-12-07T03:29:53;2.60;99.90
16128;DHT22;8168;49.036;7.690;2023-12-07T03:32:24;2.70;99.90
16128;DHT22;8168;49.036;7.690;2023-12-07T03:34:55;2.60;99.90
16128;DHT22;8168;49.036;7.690;2023-12-07T03:37:25;2.60;99.90
16128;DHT22;8168;49.036;7.690;2023-12-07T03:39:56;2.60;99.90
16128;DHT22;8168;49.036;7.690;2023-12-07T03:42:26;2.50;99.90
16128;DHT22;8168;49.036;7.690;2023-12-07T03:44:57;2.50;99.90
16128;DHT22;8168;49.036;7.690;2023-12-07T03:47:28;2.50;99.90
16128;DHT22;8168;49.036;7.690;2023-12-07T03:49:58;2.50;99.90
16128;DHT22;8168;49.036;7.690;2023-12-07T03:52:29;2.50;99.90
16128;DHT22;8168;49.036;7.690;2023-12-07T03:54:59;2.50;99.90
16128;DHT22;8168;49.036;7.690;2023-12-07T03:57:30;2.40;99.90
16128;DHT22;8168;49.036;7.690;2023-12-07T04:00:01;2.40;99.90
16128;DHT22;8168;49.036;7.690;2023-12-07T04:02:34;2.40;99.90
16128;DHT22;8168;49.036;7.690;2023-12-07T04:05:05;2.40;99.90
16128;DHT22;8168;49.036;7.690;2023-12-07T04:07:36;2.40;99.90
16128;DHT22;8168;49.036;7.690;2023-12-07T04:10:06;2.50;99.90
16128;DHT22;8168;49.036;7.690;2023-12-07T04:12:38;2.30;99.90
16128;DHT22;8168;49.036;7.690;2023-12-07T04:15:08;2.30;99.90
16128;DHT22;8168;49.036;7.690;2023-12-07T04:17:39;2.20;99.90
16128;DHT22;8168;49.036;7.690;2023-12-07T04:20:10;2.20;99.90
16128;DHT22;8168;49.036;7.690;2023-12-07T04:22:41;2.10;99.90
16128;DHT22;8168;49.036;7.690;2023-12-07T04:25:12;2.10;99.90
16128;DHT22;8168;49.036;7.690;2023-12-07T04:27:42;2.20;99.90
16128;DHT22;8168;49.036;7.690;2023-12-07T04:30:13;2.10;99.90
16128;DHT22;8168;49.036;7.690;2023-12-07T04:32:44;2.00;99.90
16128;DHT22;8168;49.036;7.690;2023-12-07T04:35:14;2.00;99.90
16128;DHT22;8168;49.036;7.690;2023-12-07T04:37:45;2.10;99.90
16128;DHT22;8168;49.036;7.690;2023-12-07T04:40:16;2.10;99.90
16128;DHT22;8168;49.036;7.690;2023-12-07T04:42:46;2.20;99.90
16128;DHT22;8168;49.036;7.690;2023-12-07T04:45:17;2.10;99.90
16128;DHT22;8168;49.036;7.690;2023-12-07T04:47:48;2.10;99.90
16128;DHT22;8168;49.036;7.690;2023-12-07T04:50:18;2.40;99.90
16128;DHT22;8168;49.036;7.690;2023-12-07T04:52:49;2.00;99.90
16128;DHT22;8168;49.036;7.690;2023-12-07T04:55:20;2.00;99.90
16128;DHT22;8168;49.036;7.690;2023-12-07T04:57:50;3.70;99.90
16128;DHT22;8168;49.036;7.690;2023-12-07T05:00:21;2.00;99.90
16128;DHT22;8168;49.036;7.690;2023-12-07T05:02:51;2.10;99.90
16128;DHT22;8168;49.036;7.690;2023-12-07T05:05:22;2.00;99.90
16128;DHT22;8168;49.036;7.690;2023-12-07T05:07:54;1.80;99.90
16128;DHT22;8168;49.036;7.690;2023-12-07T05:10:25;2.10;99.90
16128;DHT22;8168;49.036;7.690;2023-12-07T05:12:55;1.90;99.90
16128;DHT22;8168;49.036;7.690;2023-12-07T05:15:27;1.90;99.90
16128;DHT22;8168;49.036;7.690;2023-12-07T05:17:58;1.90;99.90
16128;DHT22;8168;49.036;7.690;2023-12-07T05:20:28;2.00;99.90
16128;DHT22;8168;49.036;7.690;2023-12-07T05:22:59;2.00;99.90
16128;DHT22;8168;49.036;7.690;2023-12-07T05:25:30;2.00;99.90
16128;DHT22;8168;49.036;7.690;2023-12-07T05:28:01;2.00;99.90
16128;DHT22;8168;49.036;7.690;2023-12-07T05:30:32;2.00;99.90
16128;DHT22;8168;49.036;7.690;2023-12-07T05:33:02;2.00;99.90
16128;DHT22;8168;49.036;7.690;2023-12-07T05:35:34;2.10;99.90
16128;DHT22;8168;49.036;7.690;2023-12-07T05:38:04;2.30;99.90
16128;DHT22;8168;49.036;7.690;2023-12-07T05:40:35;2.00;99.90
16128;DHT22;8168;49.036;7.690;2023-12-07T05:43:05;2.20;99.90
16128;DHT22;8168;49.036;7.690;2023-12-07T05:45:36;2.10;99.90
16128;DHT22;8168;49.036;7.690;2023-12-07T05:48:07;2.20;99.90
16128;DHT22;8168;49.036;7.690;2023-12-07T05:50:37;2.10;99.90
16128;DHT22;8168;49.036;7.690;2023-12-07T05:53:09;2.10;99.90
16128;DHT22;8168;49.036;7.690;2023-12-07T05:55:40;2.00;99.90
16128;DHT22;8168;49.036;7.690;2023-12-07T05:58:11;2.00;99.90
16128;DHT22;8168;49.036;7.690;2023-12-07T06:00:42;2.00;99.90
16128;DHT22;8168;49.036;7.690;2023-12-07T06:03:14;2.00;99.90
16128;DHT22;8168;49.036;7.690;2023-12-07T06:05:45;2.10;99.90
16128;DHT22;8168;49.036;7.690;2023-12-07T06:08:17;2.00;99.90
16128;DHT22;8168;49.036;7.690;2023-12-07T06:10:48;2.10;99.90
16128;DHT22;8168;49.036;7.690;2023-12-07T06:13:19;2.10;99.90
16128;DHT22;8168;49.036;7.690;2023-12-07T06:15:49;2.00;99.90
16128;DHT22;8168;49.036;7.690;2023-12-07T06:18:20;2.10;99.90
16128;DHT22;8168;49.036;7.690;2023-12-07T06:20:50;2.10;99.90
16128;DHT22;8168;49.036;7.690;2023-12-07T06:23:21;1.90;99.90
16128;DHT22;8168;49.036;7.690;2023-12-07T06:25:52;1.80;99.90
16128;DHT22;8168;49.036;7.690;2023-12-07T06:28:22;1.80;99.90
16128;DHT22;8168;49.036;7.690;2023-12-07T06:30:53;1.90;99.90
16128;DHT22;8168;49.036;7.690;2023-12-07T06:33:23;1.70;99.90
16128;DHT22;8168;49.036;7.690;2023-12-07T06:35:54;1.70;99.90
16128;DHT22;8168;49.036;7.690;2023-12-07T06:38:24;1.70;99.90
16128;DHT22;8168;49.036;7.690;2023-12-07T06:40:55;1.80;99.90
16128;DHT22;8168;49.036;7.690;2023-12-07T06:43:26;1.60;99.90
16128;DHT22;8168;49.036;7.690;2023-12-07T06:45:57;1.60;99.90
16128;DHT22;8168;49.036;7.690;2023-12-07T06:48:27;1.70;99.90
16128;DHT22;8168;49.036;7.690;2023-12-07T06:50:58;1.70;99.90
16128;DHT22;8168;49.036;7.690;2023-12-07T06:53:28;1.90;99.90
16128;DHT22;8168;49.036;7.690;2023-12-07T06:55:59;1.80;99.90
16128;DHT22;8168;49.036;7.690;2023-12-07T06:58:30;1.70;99.90
16128;DHT22;8168;49.036;7.690;2023-12-07T07:01:02;1.70;99.90
16128;DHT22;8168;49.036;7.690;2023-12-07T07:03:32;1.70;99.90
16128;DHT22;8168;49.036;7.690;2023-12-07T07:06:03;1.80;99.90
16128;DHT22;8168;49.036;7.690;2023-12-07T07:08:34;1.70;99.90
16128;DHT22;8168;49.036;7.690;2023-12-07T07:11:11;1.80;99.90
16128;DHT22;8168;49.036;7.690;2023-12-07T07:13:42;1.80;99.90
16128;DHT22;8168;49.036;7.690;2023-12-07T07:16:13;1.80;99.90
16128;DHT22;8168;49.036;7.690;2023-12-07T07:18:44;1.70;99.90
16128;DHT22;8168;49.036;7.690;2023-12-07T07:21:15;1.70;99.90
16128;DHT22;8168;49.036;7.690;2023-12-07T07:23:46;1.70;99.90
16128;DHT22;8168;49.036;7.690;2023-12-07T07:26:16;1.60;99.90
16128;DHT22;8168;49.036;7.690;2023-12-07T07:28:48;1.50;99.90
16128;DHT22;8168;49.036;7.690;2023-12-07T07:31:18;1.40;99.90
16128;DHT22;8168;49.036;7.690;2023-12-07T07:33:49;1.40;99.90
16128;DHT22;8168;49.036;7.690;2023-12-07T07:36:20;1.40;99.90
16128;DHT22;8168;49.036;7.690;2023-12-07T07:38:50;1.40;99.90
16128;DHT22;8168;49.036;7.690;2023-12-07T07:41:21;1.60;99.90
16128;DHT22;8168;49.036;7.690;2023-12-07T07:43:52;1.40;99.90
16128;DHT22;8168;49.036;7.690;2023-12-07T07:46:22;1.50;99.90
16128;DHT22;8168;49.036;7.690;2023-12-07T07:48:53;3.00;99.90
16128;DHT22;8168;49.036;7.690;2023-12-07T07:51:23;1.60;99.90
16128;DHT22;8168;49.036;7.690;2023-12-07T07:53:54;1.60;99.90
16128;DHT22;8168;49.036;7.690;2023-12-07T07:56:25;1.50;99.90
16128;DHT22;8168;49.036;7.690;2023-12-07T07:58:56;1.40;99.90
16128;DHT22;8168;49.036;7.690;2023-12-07T08:01:28;1.60;99.90
16128;DHT22;8168;49.036;7.690;2023-12-07T08:04:01;1.40;99.90
16128;DHT22;8168;49.036;7.690;2023-12-07T08:06:32;1.40;99.90
16128;DHT22;8168;49.036;7.690;2023-12-07T08:09:03;1.40;99.90
16128;DHT22;8168;49.036;7.690;2023-12-07T08:11:34;1.40;99.90
16128;DHT22;8168;49.036;7.690;2023-12-07T08:14:04;1.30;99.90
16128;DHT22;8168;49.036;7.690;2023-12-07T08:16:35;1.30;99.90
16128;DHT22;8168;49.036;7.690;2023-12-07T08:19:06;1.30;99.90
16128;DHT22;8168;49.036;7.690;2023-12-07T08:21:36;1.30;99.90
16128;DHT22;8168;49.036;7.690;2023-12-07T08:24:07;1.30;99.90
16128;DHT22;8168;49.036;7.690;2023-12-07T08:26:38;1.40;99.90
16128;DHT22;8168;49.036;7.690;2023-12-07T08:29:09;1.30;99.90
16128;DHT22;8168;49.036;7.690;2023-12-07T08:31:42;1.40;99.90
16128;DHT22;8168;49.036;7.690;2023-12-07T08:34:13;1.30;99.90
16128;DHT22;8168;49.036;7.690;2023-12-07T08:36:44;1.30;99.90
16128;DHT22;8168;49.036;7.690;2023-12-07T08:39:15;1.40;99.90
16128;DHT22;8168;49.036;7.690;2023-12-07T08:41:46;1.30;99.90
16128;DHT22;8168;49.036;7.690;2023-12-07T08:44:16;4.60;99.90
16128;DHT22;8168;49.036;7.690;2023-12-07T08:46:47;1.60;99.90
16128;DHT22;8168;49.036;7.690;2023-12-07T08:49:18;1.30;99.90
16128;DHT22;8168;49.036;7.690;2023-12-07T08:51:48;1.30;99.90
16128;DHT22;8168;49.036;7.690;2023-12-07T08:54:19;1.20;99.90
16128;DHT22;8168;49.036;7.690;2023-12-07T08:56:50;1.20;99.90
16128;DHT22;8168;49.036;7.690;2023-12-07T08:59:21;1.20;99.90
16128;DHT22;8168;49.036;7.690;2023-12-07T09:01:51;1.20;99.90
16128;DHT22;8168;49.036;7.690;2023-12-07T09:04:22;1.30;99.90
16128;DHT22;8168;49.036;7.690;2023-12-07T09:06:53;1.30;99.90
16128;DHT22;8168;49.036;7.690;2023-12-07T09:09:23;1.20;99.90
16128;DHT22;8168;49.036;7.690;2023-12-07T09:14:27;1.30;99.90
16128;DHT22;8168;49.036;7.690;2023-12-07T09:16:57;1.40;99.90
16128;DHT22;8168;49.036;7.690;2023-12-07T09:19:28;1.40;99.90
16128;DHT22;8168;49.036;7.690;2023-12-07T09:21:58;1.40;99.90
16128;DHT22;8168;49.036;7.690;2023-12-07T09:24:29;1.50;99.90
16128;DHT22;8168;49.036;7.690;2023-12-07T09:26:59;1.40;99.90
16128;DHT22;8168;49.036;7.690;2023-12-07T09:29:30;1.40;99.90
16128;DHT22;8168;49.036;7.690;2023-12-07T09:34:32;1.40;99.90
16128;DHT22;8168;49.036;7.690;2023-12-07T09:37:09;1.50;99.90
16128;DHT22;8168;49.036;7.690;2023-12-07T09:39:40;1.90;99.90
16128;DHT22;8168;49.036;7.690;2023-12-07T09:42:11;1.80;99.90
16128;DHT22;8168;49.036;7.690;2023-12-07T09:44:41;1.60;99.90
16128;DHT22;8168;49.036;7.690;2023-12-07T09:47:12;1.60;99.90
16128;DHT22;8168;49.036;7.690;2023-12-07T09:49:43;1.80;99.90
16128;DHT22;8168;49.036;7.690;2023-12-07T09:52:13;1.60;99.90
16128;DHT22;8168;49.036;7.690;2023-12-07T09:54:45;1.70;99.90
16128;DHT22;8168;49.036;7.690;2023-12-07T09:57:16;1.70;99.90
16128;DHT22;8168;49.036;7.690;2023-12-07T09:59:47;1.70;99.90
16128;DHT22;8168;49.036;7.690;2023-12-07T10:02:17;1.80;99.90
16128;DHT22;8168;49.036;7.690;2023-12-07T10:04:49;1.70;99.90
16128;DHT22;8168;49.036;7.690;2023-12-07T10:07:39;1.70;99.90
16128;DHT22;8168;49.036;7.690;2023-12-07T10:10:10;2.10;99.90
16128;DHT22;8168;49.036;7.690;2023-12-07T10:12:58;1.90;99.90
16128;DHT22;8168;49.036;7.690;2023-12-07T10:15:29;2.00;99.90
16128;DHT22;8168;49.036;7.690;2023-12-07T10:18:01;2.20;99.90
16128;DHT22;8168;49.036;7.690;2023-12-07T10:20:32;2.10;99.90
16128;DHT22;8168;49.036;7.690;2023-12-07T10:23:05;2.20;99.90
16128;DHT22;8168;49.036;7.690;2023-12-07T10:25:37;2.30;99.90
16128;DHT22;8168;49.036;7.690;2023-12-07T10:28:09;2.00;99.90
16128;DHT22;8168;49.036;7.690;2023-12-07T10:30:42;2.00;99.90
16128;DHT22;8168;49.036;7.690;2023-12-07T10:33:14;2.00;99.90
16128;DHT22;8168;49.036;7.690;2023-12-07T10:35:46;2.00;99.90
16128;DHT22;8168;49.036;7.690;2023-12-07T10:38:18;2.20;99.90
16128;DHT22;8168;49.036;7.690;2023-12-07T10:41:04;2.20;99.90
16128;DHT22;8168;49.036;7.690;2023-12-07T10:43:37;2.30;99.90
16128;DHT22;8168;49.036;7.690;2023-12-07T10:46:09;2.30;99.90
16128;DHT22;8168;49.036;7.690;2023-12-07T10:48:39;2.60;99.90
16128;DHT22;8168;49.036;7.690;2023-12-07T10:51:23;2.50;99.90
16128;DHT22;8168;49.036;7.690;2023-12-07T10:53:57;2.60;99.90
16128;DHT22;8168;49.036;7.690;2023-12-07T10:56:39;2.50;99.90
16128;DHT22;8168;49.036;7.690;2023-12-07T10:59:12;2.50;99.90
16128;DHT22;8168;49.036;7.690;2023-12-07T11:01:43;2.50;99.90
16128;DHT22;8168;49.036;7.690;2023-12-07T11:04:15;2.50;99.90
16128;DHT22;8168;49.036;7.690;2023-12-07T11:06:49;2.50;99.90
16128;DHT22;8168;49.036;7.690;2023-12-07T11:09:29;2.60;99.90
16128;DHT22;8168;49.036;7.690;2023-12-07T11:12:08;2.70;99.90
16128;DHT22;8168;49.036;7.690;2023-12-07T11:14:41;2.90;99.90
16128;DHT22;8168;49.036;7.690;2023-12-07T11:17:12;2.80;99.90
16128;DHT22;8168;49.036;7.690;2023-12-07T11:19:44;2.90;99.90
16128;DHT22;8168;49.036;7.690;2023-12-07T11:22:14;2.90;99.90
16128;DHT22;8168;49.036;7.690;2023-12-07T11:24:58;2.90;99.90
16128;DHT22;8168;49.036;7.690;2023-12-07T11:27:32;2.90;99.90
16128;DHT22;8168;49.036;7.690;2023-12-07T11:30:03;3.00;99.90
16128;DHT22;8168;49.036;7.690;2023-12-07T11:32:34;3.10;99.90
16128;DHT22;8168;49.036;7.690;2023-12-07T11:35:05;4.60;99.90
16128;DHT22;8168;49.036;7.690;2023-12-07T11:40:39;3.20;99.90
16128;DHT22;8168;49.036;7.690;2023-12-07T11:43:18;3.20;99.90
16128;DHT22;8168;49.036;7.690;2023-12-07T11:45:49;3.50;99.90
16128;DHT22;8168;49.036;7.690;2023-12-07T11:48:20;3.80;99.90
16128;DHT22;8168;49.036;7.690;2023-12-07T11:51:05;4.10;99.90
16128;DHT22;8168;49.036;7.690;2023-12-07T11:53:38;4.50;99.90
16128;DHT22;8168;49.036;7.690;2023-12-07T11:56:10;4.90;99.90
16128;DHT22;8168;49.036;7.690;2023-12-07T11:58:41;5.30;99.90
16128;DHT22;8168;49.036;7.690;2023-12-07T12:01:12;5.70;99.90
16128;DHT22;8168;49.036;7.690;2023-12-07T12:03:43;6.10;99.90
16128;DHT22;8168;49.036;7.690;2023-12-07T12:06:13;6.30;99.90
16128;DHT22;8168;49.036;7.690;2023-12-07T12:08:44;6.50;99.90
16128;DHT22;8168;49.036;7.690;2023-12-07T12:11:15;6.40;99.90
16128;DHT22;8168;49.036;7.690;2023-12-07T12:13:46;6.20;99.90
16128;DHT22;8168;49.036;7.690;2023-12-07T12:16:17;5.90;99.90
16128;DHT22;8168;49.036;7.690;2023-12-07T12:18:49;5.70;99.90
16128;DHT22;8168;49.036;7.690;2023-12-07T12:21:20;5.60;99.90
16128;DHT22;8168;49.036;7.690;2023-12-07T12:23:51;5.50;99.90
16128;DHT22;8168;49.036;7.690;2023-12-07T12:26:21;5.40;99.90
16128;DHT22;8168;49.036;7.690;2023-12-07T12:28:52;5.30;99.90
16128;DHT22;8168;49.036;7.690;2023-12-07T12:31:23;5.30;99.90
16128;DHT22;8168;49.036;7.690;2023-12-07T12:33:54;5.20;99.90
16128;DHT22;8168;49.036;7.690;2023-12-07T12:36:25;5.20;99.90
16128;DHT22;8168;49.036;7.690;2023-12-07T12:38:58;5.20;99.90
16128;DHT22;8168;49.036;7.690;2023-12-07T12:41:30;5.20;99.90
16128;DHT22;8168;49.036;7.690;2023-12-07T12:44:02;5.30;99.90
16128;DHT22;8168;49.036;7.690;2023-12-07T12:46:34;5.30;99.90
16128;DHT22;8168;49.036;7.690;2023-12-07T12:49:05;5.30;99.90
16128;DHT22;8168;49.036;7.690;2023-12-07T12:51:38;5.40;99.90
16128;DHT22;8168;49.036;7.690;2023-12-07T12:54:08;5.40;99.90
16128;DHT22;8168;49.036;7.690;2023-12-07T12:56:39;5.50;99.90
16128;DHT22;8168;49.036;7.690;2023-12-07T12:59:11;5.50;99.90
16128;DHT22;8168;49.036;7.690;2023-12-07T13:01:42;8.20;99.90
16128;DHT22;8168;49.036;7.690;2023-12-07T13:04:12;5.60;99.90
16128;DHT22;8168;49.036;7.690;2023-12-07T13:06:43;5.60;99.90
16128;DHT22;8168;49.036;7.690;2023-12-07T13:09:14;5.60;99.90
16128;DHT22;8168;49.036;7.690;2023-12-07T13:11:44;5.60;99.90
16128;DHT22;8168;49.036;7.690;2023-12-07T13:14:15;5.60;99.90
16128;DHT22;8168;49.036;7.690;2023-12-07T13:16:47;5.60;99.90
16128;DHT22;8168;49.036;7.690;2023-12-07T13:19:18;5.60;99.90
16128;DHT22;8168;49.036;7.690;2023-12-07T13:21:50;5.60;99.90
16128;DHT22;8168;49.036;7.690;2023-12-07T13:24:20;5.60;99.90
16128;DHT22;8168;49.036;7.690;2023-12-07T13:26:51;5.50;99.90
16128;DHT22;8168;49.036;7.690;2023-12-07T13:29:23;5.50;99.90
16128;DHT22;8168;49.036;7.690;2023-12-07T13:31:54;5.50;99.90
16128;DHT22;8168;49.036;7.690;2023-12-07T13:34:25;5.50;99.90
16128;DHT22;8168;49.036;7.690;2023-12-07T13:36:56;5.40;99.90
16128;DHT22;8168;49.036;7.690;2023-12-07T13:39:29;5.40;99.90
16128;DHT22;8168;49.036;7.690;2023-12-07T13:42:01;5.20;99.90
16128;DHT22;8168;49.036;7.690;2023-12-07T13:44:31;5.30;99.90
16128;DHT22;8168;49.036;7.690;2023-12-07T13:47:03;5.20;99.90
16128;DHT22;8168;49.036;7.690;2023-12-07T13:49:34;5.20;99.90
16128;DHT22;8168;49.036;7.690;2023-12-07T13:52:05;5.30;99.90
16128;DHT22;8168;49.036;7.690;2023-12-07T13:54:36;5.20;99.90
16128;DHT22;8168;49.036;7.690;2023-12-07T13:57:06;5.40;99.90
16128;DHT22;8168;49.036;7.690;2023-12-07T13:59:38;5.20;99.90
16128;DHT22;8168;49.036;7.690;2023-12-07T14:02:09;5.10;99.90
16128;DHT22;8168;49.036;7.690;2023-12-07T14:04:39;5.10;99.90
16128;DHT22;8168;49.036;7.690;2023-12-07T14:07:11;5.00;99.90
16128;DHT22;8168;49.036;7.690;2023-12-07T14:09:44;5.00;99.90
16128;DHT22;8168;49.036;7.690;2023-12-07T14:12:15;4.90;99.90
16128;DHT22;8168;49.036;7.690;2023-12-07T14:14:47;4.80;99.90
16128;DHT22;8168;49.036;7.690;2023-12-07T14:17:18;4.80;99.90
16128;DHT22;8168;49.036;7.690;2023-12-07T14:19:50;4.80;99.90
16128;DHT22;8168;49.036;7.690;2023-12-07T14:22:21;4.80;99.90
16128;DHT22;8168;49.036;7.690;2023-12-07T14:24:51;4.90;99.90
16128;DHT22;8168;49.036;7.690;2023-12-07T14:27:22;4.80;99.90
16128;DHT22;8168;49.036;7.690;2023-12-07T14:29:53;4.80;99.90
16128;DHT22;8168;49.036;7.690;2023-12-07T14:32:24;4.60;99.90
16128;DHT22;8168;49.036;7.690;2023-12-07T14:34:55;4.60;99.90
16128;DHT22;8168;49.036;7.690;2023-12-07T14:37:26;4.50;99.90
16128;DHT22;8168;49.036;7.690;2023-12-07T14:39:56;4.50;99.90
16128;DHT22;8168;49.036;7.690;2023-12-07T14:42:27;4.40;99.90
16128;DHT22;8168;49.036;7.690;2023-12-07T14:44:58;4.40;99.90
16128;DHT22;8168;49.036;7.690;2023-12-07T14:47:28;4.40;99.90
16128;DHT22;8168;49.036;7.690;2023-12-07T14:49:59;4.40;99.90
16128;DHT22;8168;49.036;7.690;2023-12-07T14:52:30;4.60;99.90
16128;DHT22;8168;49.036;7.690;2023-12-07T14:55:00;4.40;99.90
16128;DHT22;8168;49.036;7.690;2023-12-07T14:57:34;4.40;99.90
16128;DHT22;8168;49.036;7.690;2023-12-07T15:00:05;4.60;99.90
16128;DHT22;8168;49.036;7.690;2023-12-07T15:02:37;4.40;99.90
16128;DHT22;8168;49.036;7.690;2023-12-07T15:05:08;4.40;99.90
16128;DHT22;8168;49.036;7.690;2023-12-07T15:07:39;4.30;99.90
16128;DHT22;8168;49.036;7.690;2023-12-07T15:10:09;4.30;99.90
16128;DHT22;8168;49.036;7.690;2023-12-07T15:12:40;4.20;99.90
16128;DHT22;8168;49.036;7.690;2023-12-07T15:15:11;4.10;99.90
16128;DHT22;8168;49.036;7.690;2023-12-07T15:17:41;4.10;99.90
16128;DHT22;8168;49.036;7.690;2023-12-07T15:20:12;4.00;99.90
16128;DHT22;8168;49.036;7.690;2023-12-07T15:22:43;4.00;99.90
16128;DHT22;8168;49.036;7.690;2023-12-07T15:25:14;4.00;99.90
16128;DHT22;8168;49.036;7.690;2023-12-07T15:27:45;3.80;99.90
16128;DHT22;8168;49.036;7.690;2023-12-07T15:30:17;3.80;99.90
16128;DHT22;8168;49.036;7.690;2023-12-07T15:32:48;3.70;99.90
16128;DHT22;8168;49.036;7.690;2023-12-07T15:35:18;3.70;99.90
16128;DHT22;8168;49.036;7.690;2023-12-07T15:37:49;3.60;99.90
16128;DHT22;8168;49.036;7.690;2023-12-07T15:40:19;3.60;99.90
16128;DHT22;8168;49.036;7.690;2023-12-07T15:42:50;3.70;99.90
16128;DHT22;8168;49.036;7.690;2023-12-07T15:45:21;3.70;99.90
16128;DHT22;8168;49.036;7.690;2023-12-07T15:47:52;3.60;99.90
16128;DHT22;8168;49.036;7.690;2023-12-07T15:50:22;3.50;99.90
16128;DHT22;8168;49.036;7.690;2023-12-07T15:52:53;3.50;99.90
16128;DHT22;8168;49.036;7.690;2023-12-07T15:55:24;3.40;99.90
16128;DHT22;8168;49.036;7.690;2023-12-07T15:57:54;3.50;99.90
16128;DHT22;8168;49.036;7.690;2023-12-07T16:00:25;3.50;99.90
16128;DHT22;8168;49.036;7.690;2023-12-07T16:02:56;3.60;99.90
16128;DHT22;8168;49.036;7.690;2023-12-07T16:05:27;3.60;99.90
16128;DHT22;8168;49.036;7.690;2023-12-07T16:07:58;3.60;99.90
16128;DHT22;8168;49.036;7.690;2023-12-07T16:10:28;3.60;99.90
16128;DHT22;8168;49.036;7.690;2023-12-07T16:12:59;3.50;99.90
16128;DHT22;8168;49.036;7.690;2023-12-07T16:15:30;3.50;99.90
16128;DHT22;8168;49.036;7.690;2023-12-07T16:18:00;3.50;99.90
16128;DHT22;8168;49.036;7.690;2023-12-07T16:20:31;3.50;99.90
16128;DHT22;8168;49.036;7.690;2023-12-07T16:23:01;3.60;99.90
16128;DHT22;8168;49.036;7.690;2023-12-07T16:25:32;3.60;99.90
16128;DHT22;8168;49.036;7.690;2023-12-07T16:28:03;3.60;99.90
16128;DHT22;8168;49.036;7.690;2023-12-07T16:30:33;3.60;99.90
16128;DHT22;8168;49.036;7.690;2023-12-07T16:33:04;3.60;99.90
16128;DHT22;8168;49.036;7.690;2023-12-07T16:35:34;3.50;99.90
16128;DHT22;8168;49.036;7.690;2023-12-07T16:38:05;3.50;99.90